Time;durP1;ratioP1;P1;durP2;ratioP2;P2;SDS_P1;SDS_P2;PMS_P1;PMS_P2;Temp;Humidity;BMP_temperature;BMP_pressure;BME280_temperature;BME280_humidity;BME280_pressure;Samples;Min_cycle;Max_cycle;Signal;HPM_P1;HPM_P2
2019/06/25 00:00:55;;;;;;;2.39;2.19;;;;;;;22.55;58.89;100733.97;;;;-50
2019/06/25 00:03:55;;;;;;;2.40;2.20;;;;;;;22.55;58.90;100734.23;;;;-50
2019/06/25 00:06:54;;;;;;;2.61;2.41;;;;;;;22.54;58.88;100734.20;;;;-51
2019/06/25 00:09:55;;;;;;;2.61;2.24;;;;;;;22.55;58.89;100736.32;;;;-50
2019/06/25 00:12:55;;;;;;;2.41;2.13;;;;;;;22.54;58.87;100728.03;;;;-50
2019/06/25 00:15:55;;;;;;;2.40;2.20;;;;;;;22.54;58.91;100725.44;;;;-51
2019/06/25 00:18:54;;;;;;;2.48;2.28;;;;;;;22.53;58.93;100728.94;;;;-50
2019/06/25 00:21:55;;;;;;;2.49;2.29;;;;;;;22.52;58.91;100725.54;;;;-50
2019/06/25 00:24:55;;;;;;;2.43;2.23;;;;;;;22.53;58.88;100726.02;;;;-50
2019/06/25 00:27:55;;;;;;;2.45;2.24;;;;;;;22.53;58.91;100730.42;;;;-50
2019/06/25 00:30:55;;;;;;;2.49;2.29;;;;;;;22.53;58.90;100731.97;;;;-50
2019/06/25 00:33:54;;;;;;;2.54;2.23;;;;;;;22.52;58.89;100732.10;;;;-50
2019/06/25 00:36:54;;;;;;;2.27;2.07;;;;;;;22.52;58.87;100733.28;;;;-50
2019/06/25 00:39:55;;;;;;;2.20;2.07;;;;;;;22.51;58.85;100736.21;;;;-50
2019/06/25 00:42:55;;;;;;;2.26;2.10;;;;;;;22.52;58.87;100734.09;;;;-49
2019/06/25 00:45:55;;;;;;;2.29;2.09;;;;;;;22.52;58.87;100733.52;;;;-49
2019/06/25 00:48:55;;;;;;;2.32;2.10;;;;;;;22.51;58.86;100729.38;;;;-50
2019/06/25 00:51:55;;;;;;;2.29;2.09;;;;;;;22.51;58.85;100726.25;;;;-50
2019/06/25 00:54:55;;;;;;;2.49;2.17;;;;;;;22.51;58.83;100726.78;;;;-49
2019/06/25 00:57:55;;;;;;;2.59;2.39;;;;;;;22.50;58.87;100724.63;;;;-49
2019/06/25 01:00:55;;;;;;;2.43;2.23;;;;;;;22.51;58.84;100723.72;;;;-51
2019/06/25 01:03:55;;;;;;;2.27;2.10;;;;;;;22.50;58.84;100728.23;;;;-50
2019/06/25 01:06:55;;;;;;;2.14;2.04;;;;;;;22.50;58.82;100735.91;;;;-49
2019/06/25 01:09:54;;;;;;;2.40;2.20;;;;;;;22.50;58.83;100737.25;;;;-50
2019/06/25 01:12:55;;;;;;;2.35;2.15;;;;;;;22.50;58.84;100735.23;;;;-50
2019/06/25 01:15:55;;;;;;;2.49;2.07;;;;;;;22.49;58.82;100734.69;;;;-50
2019/06/25 01:18:55;;;;;;;2.23;2.13;;;;;;;22.49;58.84;100728.30;;;;-51
2019/06/25 01:21:54;;;;;;;2.17;2.07;;;;;;;22.49;58.81;100723.04;;;;-49
2019/06/25 01:24:55;;;;;;;2.22;2.08;;;;;;;22.49;58.82;100719.77;;;;-50
2019/06/25 01:27:55;;;;;;;2.40;2.20;;;;;;;22.48;58.80;100715.03;;;;-50
2019/06/25 01:30:54;;;;;;;2.40;2.20;;;;;;;22.48;58.82;100710.14;;;;-51
2019/06/25 01:33:55;;;;;;;2.37;2.17;;;;;;;22.48;58.80;100713.17;;;;-50
2019/06/25 01:36:55;;;;;;;2.10;1.94;;;;;;;22.47;58.80;100708.70;;;;-49
2019/06/25 01:39:55;;;;;;;2.32;2.12;;;;;;;22.47;58.79;100714.08;;;;-50
2019/06/25 01:42:55;;;;;;;2.47;2.27;;;;;;;22.47;58.81;100715.53;;;;-49
2019/06/25 01:45:55;;;;;;;2.39;2.16;;;;;;;22.47;58.82;100716.27;;;;-50
2019/06/25 01:48:55;;;;;;;2.31;2.11;;;;;;;22.48;58.79;100718.80;;;;-49
2019/06/25 01:51:55;;;;;;;2.18;2.08;;;;;;;22.47;58.78;100716.27;;;;-50
2019/06/25 01:54:55;;;;;;;2.29;2.09;;;;;;;22.46;58.75;100710.95;;;;-50
2019/06/25 01:57:55;;;;;;;2.20;2.09;;;;;;;22.47;58.79;100711.19;;;;-51
2019/06/25 02:00:55;;;;;;;2.46;2.23;;;;;;;22.46;58.80;100710.61;;;;-50
2019/06/25 02:03:54;;;;;;;2.26;2.09;;;;;;;22.46;58.76;100704.18;;;;-50
2019/06/25 02:06:55;;;;;;;2.66;2.18;;;;;;;22.46;58.77;100699.97;;;;-49
2019/06/25 02:09:54;;;;;;;2.55;2.33;;;;;;;22.46;58.80;100692.41;;;;-49
2019/06/25 02:12:55;;;;;;;2.14;2.01;;;;;;;22.45;58.74;100690.28;;;;-50
2019/06/25 02:15:55;;;;;;;2.48;2.17;;;;;;;22.46;58.75;100697.22;;;;-50
2019/06/25 02:18:55;;;;;;;2.28;2.11;;;;;;;22.45;58.74;100688.93;;;;-49
2019/06/25 02:21:54;;;;;;;2.71;2.09;;;;;;;22.45;58.73;100683.88;;;;-49
2019/06/25 02:24:55;;;;;;;2.53;2.14;;;;;;;22.44;58.75;100672.67;;;;-50
2019/06/25 02:27:55;;;;;;;2.14;1.99;;;;;;;22.45;58.76;100675.36;;;;-49
2019/06/25 02:30:55;;;;;;;2.42;2.20;;;;;;;22.44;58.76;100677.72;;;;-50
2019/06/25 02:33:55;;;;;;;2.12;2.02;;;;;;;22.45;58.73;100677.31;;;;-50
2019/06/25 02:36:54;;;;;;;2.05;1.95;;;;;;;22.45;58.75;100674.19;;;;-50
2019/06/25 02:39:55;;;;;;;2.35;2.15;;;;;;;22.43;58.76;100672.47;;;;-50
2019/06/25 02:42:55;;;;;;;2.36;2.16;;;;;;;22.44;58.74;100673.24;;;;-48
2019/06/25 02:45:55;;;;;;;2.29;2.10;;;;;;;22.43;58.75;100674.83;;;;-51
2019/06/25 02:48:55;;;;;;;2.25;2.08;;;;;;;22.44;58.75;100676.84;;;;-49
2019/06/25 02:51:55;;;;;;;2.33;2.19;;;;;;;22.44;58.76;100682.56;;;;-50
2019/06/25 02:54:55;;;;;;;2.03;1.89;;;;;;;22.44;58.74;100681.66;;;;-49
2019/06/25 02:57:54;;;;;;;2.25;2.06;;;;;;;22.43;58.73;100687.45;;;;-50
2019/06/25 03:00:55;;;;;;;2.22;2.05;;;;;;;22.43;58.73;100685.16;;;;-50
2019/06/25 03:03:55;;;;;;;2.55;2.20;;;;;;;22.44;58.76;100690.07;;;;-50
2019/06/25 03:06:55;;;;;;;2.35;2.15;;;;;;;22.42;58.76;100683.88;;;;-50
2019/06/25 03:09:55;;;;;;;2.11;2.00;;;;;;;22.43;58.73;100689.09;;;;-50
2019/06/25 03:12:55;;;;;;;2.12;2.00;;;;;;;22.42;58.78;100689.66;;;;-50
2019/06/25 03:15:55;;;;;;;2.25;2.11;;;;;;;22.42;58.76;100682.59;;;;-50
2019/06/25 03:18:55;;;;;;;2.16;2.06;;;;;;;22.43;58.72;100683.64;;;;-51
2019/06/25 03:21:55;;;;;;;2.17;2.07;;;;;;;22.42;58.73;100691.34;;;;-50
2019/06/25 03:24:55;;;;;;;2.10;2.00;;;;;;;22.42;58.75;100693.37;;;;-49
2019/06/25 03:27:55;;;;;;;2.10;2.00;;;;;;;22.42;58.74;100692.42;;;;-50
2019/06/25 03:30:55;;;;;;;2.54;2.03;;;;;;;22.42;58.72;100690.67;;;;-50
2019/06/25 03:33:55;;;;;;;2.31;2.13;;;;;;;22.41;58.74;100688.89;;;;-50
2019/06/25 03:36:54;;;;;;;2.19;2.00;;;;;;;22.40;58.72;100685.79;;;;-50
2019/06/25 03:39:55;;;;;;;2.24;2.09;;;;;;;22.41;58.74;100689.53;;;;-50
2019/06/25 03:42:55;;;;;;;2.23;2.03;;;;;;;22.40;58.73;100688.02;;;;-49
2019/06/25 03:45:55;;;;;;;2.33;2.10;;;;;;;22.40;58.70;100686.16;;;;-50
2019/06/25 03:48:54;;;;;;;2.34;2.15;;;;;;;22.40;58.75;100689.93;;;;-50
2019/06/25 03:51:55;;;;;;;2.16;2.03;;;;;;;22.39;58.71;100688.71;;;;-50
2019/06/25 03:54:55;;;;;;;2.30;2.10;;;;;;;22.40;58.74;100692.22;;;;-49
2019/06/25 03:57:55;;;;;;;2.29;2.13;;;;;;;22.40;58.72;100698.17;;;;-50
2019/06/25 04:00:54;;;;;;;2.22;2.09;;;;;;;22.40;58.76;100695.48;;;;-51
2019/06/25 04:03:55;;;;;;;2.21;2.01;;;;;;;22.39;58.73;100699.15;;;;-50
2019/06/25 04:06:55;;;;;;;2.31;2.14;;;;;;;22.39;58.72;100703.19;;;;-49
2019/06/25 04:09:55;;;;;;;2.09;1.99;;;;;;;22.39;58.74;100711.03;;;;-50
2019/06/25 04:12:54;;;;;;;2.41;2.08;;;;;;;22.40;58.71;100714.23;;;;-50
2019/06/25 04:15:54;;;;;;;2.10;2.00;;;;;;;22.40;58.71;100713.39;;;;-50
2019/06/25 04:18:55;;;;;;;2.28;2.08;;;;;;;22.39;58.71;100705.78;;;;-50
2019/06/25 04:21:55;;;;;;;2.09;1.99;;;;;;;22.39;58.72;100702.58;;;;-50
2019/06/25 04:24:55;;;;;;;2.19;2.01;;;;;;;22.39;58.69;100706.66;;;;-50
2019/06/25 04:27:54;;;;;;;1.97;1.87;;;;;;;22.38;58.68;100701.40;;;;-49
2019/06/25 04:30:55;;;;;;;2.21;2.01;;;;;;;22.38;58.70;100697.70;;;;-51
2019/06/25 04:33:55;;;;;;;2.10;2.00;;;;;;;22.38;58.69;100693.89;;;;-50
2019/06/25 04:36:55;;;;;;;2.10;2.00;;;;;;;22.38;58.71;100695.84;;;;-48
2019/06/25 04:39:55;;;;;;;2.15;2.02;;;;;;;22.38;58.69;100702.08;;;;-50
2019/06/25 04:42:55;;;;;;;2.10;2.00;;;;;;;22.38;58.66;100707.53;;;;-50
2019/06/25 04:45:55;;;;;;;2.21;2.00;;;;;;;22.38;58.69;100708.37;;;;-50
2019/06/25 04:48:55;;;;;;;2.02;1.92;;;;;;;22.37;58.66;100706.41;;;;-50
2019/06/25 04:51:54;;;;;;;2.09;1.99;;;;;;;22.38;58.65;100710.22;;;;-49
2019/06/25 04:54:55;;;;;;;2.24;2.04;;;;;;;22.38;58.71;100715.27;;;;-50
2019/06/25 04:57:55;;;;;;;2.00;1.90;;;;;;;22.37;58.68;100716.91;;;;-50
2019/06/25 05:00:55;;;;;;;2.11;2.01;;;;;;;22.38;58.67;100721.66;;;;-49
2019/06/25 05:03:55;;;;;;;2.16;2.06;;;;;;;22.37;58.67;100720.88;;;;-49
2019/06/25 05:06:55;;;;;;;2.01;1.91;;;;;;;22.36;58.67;100718.89;;;;-50
2019/06/25 05:09:55;;;;;;;2.14;2.00;;;;;;;22.37;58.69;100723.07;;;;-50
2019/06/25 05:12:55;;;;;;;2.70;1.90;;;;;;;22.39;58.83;100724.73;;;;-50
2019/06/25 05:15:55;;;;;;;3.23;2.71;;;;;;;22.38;59.26;100729.17;;;;-50
2019/06/25 05:18:54;;;;;;;2.89;2.33;;;;;;;22.38;58.91;100735.06;;;;-49
2019/06/25 05:21:54;;;;;;;2.67;2.39;;;;;;;22.38;58.87;100737.65;;;;-50
2019/06/25 05:24:55;;;;;;;2.39;2.19;;;;;;;22.38;58.88;100744.98;;;;-51
2019/06/25 05:27:55;;;;;;;2.38;2.22;;;;;;;22.38;58.92;100746.33;;;;-49
2019/06/25 05:30:55;;;;;;;2.87;2.49;;;;;;;22.38;58.86;100749.09;;;;-50
2019/06/25 05:33:55;;;;;;;2.81;2.54;;;;;;;22.38;58.90;100753.63;;;;-50
2019/06/25 05:36:59;;;;;;;2.52;2.32;;;;;;;22.37;58.83;100755.05;;;;-50
2019/06/25 05:39:54;;;;;;;2.79;2.58;;;;;;;22.37;58.85;100753.94;;;;-50
2019/06/25 05:42:54;;;;;;;2.70;2.50;;;;;;;22.37;58.87;100758.48;;;;-50
2019/06/25 05:45:55;;;;;;;3.61;2.51;;;;;;;22.37;58.80;100759.09;;;;-49
2019/06/25 05:48:55;;;;;;;3.00;2.55;;;;;;;22.36;58.78;100760.05;;;;-49
2019/06/25 05:51:55;;;;;;;2.61;2.40;;;;;;;22.36;58.85;100761.58;;;;-50
2019/06/25 05:54:55;;;;;;;3.06;2.49;;;;;;;22.37;58.81;100769.52;;;;-50
2019/06/25 05:57:54;;;;;;;2.60;2.40;;;;;;;22.37;58.78;100770.59;;;;-49
2019/06/25 06:00:55;;;;;;;2.76;2.51;;;;;;;22.37;58.75;100774.06;;;;-49
2019/06/25 06:03:55;;;;;;;2.89;2.69;;;;;;;22.37;58.77;100777.59;;;;-50
2019/06/25 06:06:54;;;;;;;2.97;2.50;;;;;;;22.37;58.76;100778.10;;;;-49
2019/06/25 06:09:55;;;;;;;2.93;2.57;;;;;;;22.36;58.82;100778.23;;;;-50
2019/06/25 06:12:55;;;;;;;2.68;2.48;;;;;;;22.36;58.74;100778.23;;;;-51
2019/06/25 06:15:55;;;;;;;3.01;2.48;;;;;;;22.36;58.75;100781.94;;;;-50
2019/06/25 06:18:55;;;;;;;2.60;2.40;;;;;;;22.36;58.75;100782.61;;;;-50
2019/06/25 06:21:54;;;;;;;2.66;2.46;;;;;;;22.37;58.72;100786.41;;;;-49
2019/06/25 06:24:54;;;;;;;2.87;2.67;;;;;;;22.36;58.77;100791.02;;;;-50
2019/06/25 06:27:55;;;;;;;2.87;2.57;;;;;;;22.36;58.75;100792.53;;;;-50
2019/06/25 06:30:55;;;;;;;2.60;2.40;;;;;;;22.36;58.74;100797.14;;;;-50
2019/06/25 06:33:55;;;;;;;2.70;2.50;;;;;;;22.36;58.74;100799.50;;;;-51
2019/06/25 06:36:54;;;;;;;2.59;2.39;;;;;;;22.35;58.74;100798.45;;;;-50
2019/06/25 06:39:55;;;;;;;2.71;2.51;;;;;;;22.35;58.72;100796.87;;;;-50
2019/06/25 06:42:55;;;;;;;2.74;2.53;;;;;;;22.35;58.72;100802.49;;;;-50
2019/06/25 06:45:55;;;;;;;2.63;2.43;;;;;;;22.35;58.74;100807.31;;;;-49
2019/06/25 06:48:54;;;;;;;2.91;2.65;;;;;;;22.35;58.72;100806.47;;;;-50
2019/06/25 06:51:54;;;;;;;2.71;2.51;;;;;;;22.36;58.69;100810.27;;;;-50
2019/06/25 06:54:55;;;;;;;2.57;2.37;;;;;;;22.36;58.72;100817.34;;;;-50
2019/06/25 06:57:55;;;;;;;2.82;2.62;;;;;;;22.36;58.72;100821.98;;;;-50
2019/06/25 07:00:55;;;;;;;2.72;2.52;;;;;;;22.36;58.73;100821.55;;;;-50
2019/06/25 07:03:55;;;;;;;2.73;2.53;;;;;;;22.35;58.69;100822.28;;;;-50
2019/06/25 07:06:55;;;;;;;2.63;2.43;;;;;;;22.35;58.71;100824.37;;;;-49
2019/06/25 07:09:54;;;;;;;2.91;2.53;;;;;;;22.35;58.96;100817.91;;;;-54
2019/06/25 07:12:54;;;;;;;2.60;2.40;;;;;;;22.37;58.83;100819.73;;;;-50
2019/06/25 07:15:54;;;;;;;3.79;2.59;;;;;;;22.36;58.80;100818.85;;;;-51
2019/06/25 07:18:54;;;;;;;4.33;2.57;;;;;;;22.36;58.72;100826.42;;;;-50
2019/06/25 07:21:54;;;;;;;2.50;2.30;;;;;;;22.37;58.77;100831.52;;;;-51
2019/06/25 07:24:54;;;;;;;2.58;2.38;;;;;;;22.36;58.76;100827.54;;;;-50
2019/06/25 07:27:54;;;;;;;4.63;2.60;;;;;;;22.36;58.76;100837.47;;;;-50
2019/06/25 07:30:54;;;;;;;2.61;2.35;;;;;;;22.35;58.76;100839.34;;;;-50
2019/06/25 07:33:54;;;;;;;2.68;2.47;;;;;;;22.36;58.77;100842.69;;;;-50
2019/06/25 07:36:54;;;;;;;3.05;2.43;;;;;;;22.36;58.76;100841.91;;;;-50
2019/06/25 07:39:54;;;;;;;4.68;2.40;;;;;;;22.35;58.72;100841.97;;;;-50
2019/06/25 07:42:54;;;;;;;2.56;2.36;;;;;;;22.35;58.73;100843.22;;;;-50
2019/06/25 07:45:54;;;;;;;3.13;2.36;;;;;;;22.35;58.73;100842.04;;;;-50
2019/06/25 07:48:54;;;;;;;2.60;2.40;;;;;;;22.35;58.72;100844.56;;;;-50
2019/06/25 07:51:54;;;;;;;7.72;2.54;;;;;;;22.36;59.21;100846.11;;;;-48
2019/06/25 07:54:54;;;;;;;3.59;2.47;;;;;;;22.37;59.29;100844.75;;;;-51
2019/06/25 07:57:54;;;;;;;5.00;2.37;;;;;;;22.39;59.13;100840.34;;;;-50
2019/06/25 08:00:54;;;;;;;3.03;2.42;;;;;;;22.40;59.28;100845.70;;;;-51
2019/06/25 08:03:54;;;;;;;2.60;2.40;;;;;;;22.41;59.35;100838.91;;;;-51
2019/06/25 08:06:54;;;;;;;3.99;2.69;;;;;;;22.43;59.38;100837.20;;;;-51
2019/06/25 08:09:54;;;;;;;3.34;2.33;;;;;;;22.45;59.42;100838.55;;;;-52
2019/06/25 08:12:55;;;;;;;3.21;2.48;;;;;;;22.45;59.60;100834.95;;;;-50
2019/06/25 08:15:54;;;;;;;2.57;2.37;;;;;;;22.48;59.52;100837.42;;;;-50
2019/06/25 08:18:54;;;;;;;2.56;2.31;;;;;;;22.50;59.54;100834.70;;;;-48
2019/06/25 08:21:54;;;;;;;2.67;2.39;;;;;;;22.51;59.56;100843.06;;;;-51
2019/06/25 08:24:54;;;;;;;2.48;2.28;;;;;;;22.51;59.65;100841.58;;;;-50
2019/06/25 08:27:54;;;;;;;2.83;2.17;;;;;;;22.53;59.67;100847.68;;;;-53
2019/06/25 08:30:55;;;;;;;3.17;2.31;;;;;;;22.54;59.68;100846.38;;;;-50
2019/06/25 08:33:54;;;;;;;2.61;2.41;;;;;;;22.55;59.56;100845.64;;;;-50
2019/06/25 08:36:54;;;;;;;2.51;2.32;;;;;;;22.55;59.63;100850.18;;;;-51
2019/06/25 08:39:54;;;;;;;5.48;2.55;;;;;;;22.55;59.67;100851.56;;;;-50
2019/06/25 08:42:54;;;;;;;3.36;2.27;;;;;;;22.56;59.66;100855.38;;;;-51
2019/06/25 08:45:54;;;;;;;3.27;2.37;;;;;;;22.58;59.58;100852.98;;;;-50
2019/06/25 08:48:54;;;;;;;2.67;2.47;;;;;;;22.59;59.81;100854.23;;;;-50
2019/06/25 08:51:56;;;;;;;2.75;2.49;;;;;;;22.60;59.60;100848.45;;;;-50
2019/06/25 08:54:54;;;;;;;3.36;2.74;;;;;;;22.62;59.76;100851.39;;;;-49
2019/06/25 08:57:54;;;;;;;5.23;3.02;;;;;;;22.63;59.83;100850.16;;;;-51
2019/06/25 09:00:54;;;;;;;9.30;3.04;;;;;;;22.67;60.37;100846.86;;;;-50
2019/06/25 09:03:54;;;;;;;8.75;3.27;;;;;;;22.68;59.99;100854.14;;;;-53
2019/06/25 09:06:54;;;;;;;5.47;2.73;;;;;;;22.67;59.85;100850.13;;;;-49
2019/06/25 09:09:54;;;;;;;5.19;3.01;;;;;;;22.68;59.88;100849.33;;;;-47
2019/06/25 09:12:55;;;;;;;5.59;2.73;;;;;;;22.69;59.75;100844.48;;;;-50
2019/06/25 09:15:54;;;;;;;7.38;2.85;;;;;;;22.70;59.91;100847.15;;;;-48
2019/06/25 09:18:54;;;;;;;6.81;2.85;;;;;;;22.71;59.76;100850.18;;;;-51
2019/06/25 09:21:54;;;;;;;7.23;2.93;;;;;;;22.72;59.94;100849.55;;;;-50
2019/06/25 09:24:54;;;;;;;7.14;3.00;;;;;;;22.72;59.99;100852.27;;;;-54
2019/06/25 09:27:54;;;;;;;6.16;2.73;;;;;;;22.74;59.93;100854.88;;;;-48
2019/06/25 09:30:54;;;;;;;4.46;2.69;;;;;;;22.76;60.11;100858.89;;;;-47
2019/06/25 09:33:54;;;;;;;11.87;3.42;;;;;;;22.77;59.91;100856.84;;;;-50
2019/06/25 09:36:54;;;;;;;6.47;3.27;;;;;;;22.78;60.00;100854.98;;;;-49
2019/06/25 09:39:54;;;;;;;5.13;2.94;;;;;;;22.77;59.85;100858.29;;;;-49
2019/06/25 09:42:54;;;;;;;7.77;3.31;;;;;;;22.77;59.87;100863.23;;;;-52
2019/06/25 09:45:54;;;;;;;4.41;3.09;;;;;;;22.78;59.82;100867.22;;;;-50
2019/06/25 09:48:54;;;;;;;7.53;3.47;;;;;;;22.78;59.73;100865.53;;;;-49
2019/06/25 09:51:54;;;;;;;5.34;3.21;;;;;;;22.79;60.01;100862.27;;;;-52
2019/06/25 09:54:54;;;;;;;5.34;3.28;;;;;;;22.79;59.92;100864.22;;;;-51
2019/06/25 09:57:54;;;;;;;8.69;3.22;;;;;;;22.81;59.53;100865.30;;;;-51
2019/06/25 10:00:56;;;;;;;8.80;3.35;;;;;;;22.82;59.88;100867.30;;;;-48
2019/06/25 10:03:54;;;;;;;6.53;3.23;;;;;;;22.83;59.62;100866.80;;;;-51
2019/06/25 10:06:54;;;;;;;8.13;3.43;;;;;;;22.84;59.61;100867.44;;;;-49
2019/06/25 10:09:54;;;;;;;7.74;3.34;;;;;;;22.84;59.63;100860.13;;;;-51
2019/06/25 10:12:54;;;;;;;11.40;3.27;;;;;;;22.84;59.87;100864.58;;;;-51
2019/06/25 10:15:54;;;;;;;8.35;3.29;;;;;;;22.86;59.71;100865.50;;;;-49
2019/06/25 10:18:54;;;;;;;9.52;3.37;;;;;;;22.88;59.73;100860.58;;;;-53
2019/06/25 10:21:54;;;;;;;9.01;3.49;;;;;;;22.88;59.48;100863.72;;;;-52
2019/06/25 10:24:54;;;;;;;12.37;3.33;;;;;;;22.88;59.76;100865.23;;;;-51
2019/06/25 10:27:54;;;;;;;8.15;3.39;;;;;;;22.88;59.36;100863.95;;;;-51
2019/06/25 10:30:54;;;;;;;11.61;3.45;;;;;;;22.86;59.42;100865.16;;;;-52
2019/06/25 10:33:54;;;;;;;6.13;3.31;;;;;;;22.86;59.42;100865.39;;;;-51
2019/06/25 10:36:54;;;;;;;8.92;3.16;;;;;;;22.85;59.36;100866.36;;;;-52
2019/06/25 10:39:54;;;;;;;9.21;3.35;;;;;;;22.84;59.35;100868.22;;;;-51
2019/06/25 10:42:54;;;;;;;8.29;3.23;;;;;;;22.83;59.29;100866.16;;;;-51
2019/06/25 10:45:54;;;;;;;6.76;3.39;;;;;;;22.84;59.29;100870.37;;;;-51
2019/06/25 10:48:54;;;;;;;5.53;3.34;;;;;;;22.83;59.25;100871.17;;;;-51
2019/06/25 10:51:54;;;;;;;5.22;3.11;;;;;;;22.82;59.26;100871.91;;;;-53
2019/06/25 10:54:54;;;;;;;6.04;3.15;;;;;;;22.81;59.16;100875.08;;;;-50
2019/06/25 10:57:54;;;;;;;11.86;3.73;;;;;;;22.82;59.31;100872.25;;;;-49
2019/06/25 11:00:54;;;;;;;10.80;3.43;;;;;;;22.83;59.46;100871.21;;;;-51
2019/06/25 11:03:54;;;;;;;8.82;3.61;;;;;;;22.84;59.49;100869.73;;;;-51
2019/06/25 11:06:54;;;;;;;8.37;3.55;;;;;;;22.83;59.63;100869.25;;;;-52
2019/06/25 11:09:55;;;;;;;7.89;3.67;;;;;;;22.86;59.53;100871.12;;;;-49
2019/06/25 11:12:54;;;;;;;7.23;3.43;;;;;;;22.87;59.59;100869.23;;;;-52
2019/06/25 11:15:54;;;;;;;8.24;3.54;;;;;;;22.85;59.35;100861.08;;;;-49
2019/06/25 11:18:54;;;;;;;7.00;3.55;;;;;;;22.87;59.58;100862.73;;;;-54
2019/06/25 11:21:54;;;;;;;7.99;3.47;;;;;;;22.87;59.32;100863.91;;;;-53
2019/06/25 11:24:54;;;;;;;11.69;3.88;;;;;;;22.86;59.38;100862.12;;;;-53
2019/06/25 11:27:54;;;;;;;6.26;3.43;;;;;;;22.86;59.29;100859.50;;;;-52
2019/06/25 11:30:54;;;;;;;9.64;3.55;;;;;;;22.85;59.24;100857.14;;;;-52
2019/06/25 11:33:54;;;;;;;6.48;3.59;;;;;;;22.85;59.25;100856.20;;;;-52
2019/06/25 11:36:54;;;;;;;8.15;3.53;;;;;;;22.86;59.38;100860.17;;;;-54
2019/06/25 11:39:54;;;;;;;8.17;3.64;;;;;;;22.86;59.45;100855.89;;;;-50
2019/06/25 11:42:54;;;;;;;7.47;3.42;;;;;;;22.85;59.08;100856.30;;;;-50
2019/06/25 11:45:54;;;;;;;4.95;3.42;;;;;;;22.84;59.19;100857.17;;;;-50
2019/06/25 11:48:54;;;;;;;5.86;3.28;;;;;;;22.84;59.22;100854.88;;;;-50
2019/06/25 11:51:54;;;;;;;7.97;3.60;;;;;;;22.83;59.15;100856.02;;;;-50
2019/06/25 11:54:54;;;;;;;8.17;3.39;;;;;;;22.83;59.09;100854.33;;;;-51
2019/06/25 11:57:54;;;;;;;5.42;3.45;;;;;;;22.81;59.08;100851.77;;;;-51
2019/06/25 12:00:54;;;;;;;7.77;3.25;;;;;;;22.80;59.08;100849.27;;;;-50
2019/06/25 12:03:54;;;;;;;7.79;3.31;;;;;;;22.80;59.06;100853.98;;;;-50
2019/06/25 12:06:54;;;;;;;7.19;3.53;;;;;;;22.80;59.03;100849.10;;;;-50
2019/06/25 12:09:54;;;;;;;7.77;3.37;;;;;;;22.79;59.03;100852.37;;;;-50
2019/06/25 12:12:54;;;;;;;4.86;3.45;;;;;;;22.79;59.03;100847.55;;;;-50
2019/06/25 12:15:54;;;;;;;5.25;3.20;;;;;;;22.79;59.02;100849.41;;;;-52
2019/06/25 12:18:54;;;;;;;7.81;3.21;;;;;;;22.78;58.99;100847.78;;;;-51
2019/06/25 12:21:54;;;;;;;12.62;3.51;;;;;;;22.78;59.44;100849.20;;;;-52
2019/06/25 12:24:54;;;;;;;9.21;3.83;;;;;;;22.80;59.18;100843.04;;;;-52
2019/06/25 12:27:54;;;;;;;6.95;3.27;;;;;;;22.80;59.25;100844.89;;;;-51
2019/06/25 12:30:54;;;;;;;7.26;3.52;;;;;;;22.81;59.18;100842.51;;;;-51
2019/06/25 12:33:54;;;;;;;5.67;3.39;;;;;;;22.82;59.21;100843.18;;;;-51
2019/06/25 12:36:54;;;;;;;5.39;3.24;;;;;;;22.82;59.25;100841.43;;;;-52
2019/06/25 12:39:54;;;;;;;6.89;3.28;;;;;;;22.83;59.23;100839.88;;;;-51
2019/06/25 12:42:54;;;;;;;5.05;3.19;;;;;;;22.84;59.21;100838.98;;;;-51
2019/06/25 12:45:54;;;;;;;8.26;3.34;;;;;;;22.84;59.31;100841.17;;;;-53
2019/06/25 12:48:54;;;;;;;8.10;3.40;;;;;;;22.86;59.17;100836.25;;;;-53
2019/06/25 12:51:54;;;;;;;9.02;3.53;;;;;;;22.86;59.30;100836.70;;;;-52
2019/06/25 12:54:54;;;;;;;6.46;3.31;;;;;;;22.86;59.27;100836.42;;;;-51
2019/06/25 12:57:54;;;;;;;8.10;3.35;;;;;;;22.86;59.33;100839.39;;;;-52
2019/06/25 13:00:54;;;;;;;3.69;3.14;;;;;;;22.87;59.35;100833.09;;;;-51
2019/06/25 13:03:54;;;;;;;12.30;3.57;;;;;;;22.87;59.59;100835.55;;;;-51
2019/06/25 13:06:54;;;;;;;6.03;3.27;;;;;;;22.89;59.39;100831.31;;;;-49
2019/06/25 13:09:55;;;;;;;6.41;3.19;;;;;;;22.90;59.46;100829.83;;;;-51
2019/06/25 13:12:54;;;;;;;9.86;3.47;;;;;;;22.90;59.60;100821.52;;;;-52
2019/06/25 13:15:54;;;;;;;12.13;3.78;;;;;;;22.91;59.56;100820.37;;;;-52
2019/06/25 13:18:54;;;;;;;9.94;3.57;;;;;;;22.90;59.28;100821.08;;;;-53
2019/06/25 13:21:54;;;;;;;8.42;3.41;;;;;;;22.90;59.35;100824.71;;;;-51
2019/06/25 13:24:54;;;;;;;7.13;3.28;;;;;;;22.89;59.35;100826.94;;;;-53
2019/06/25 13:27:54;;;;;;;6.19;3.24;;;;;;;22.88;59.27;100822.02;;;;-52
2019/06/25 13:30:54;;;;;;;5.40;3.19;;;;;;;22.87;59.18;100821.91;;;;-51
2019/06/25 13:33:54;;;;;;;9.96;3.31;;;;;;;22.87;59.19;100820.05;;;;-53
2019/06/25 13:36:54;;;;;;;8.95;3.19;;;;;;;22.86;59.18;100823.05;;;;-53
2019/06/25 13:39:54;;;;;;;7.30;3.39;;;;;;;22.87;59.46;100823.83;;;;-50
2019/06/25 13:42:54;;;;;;;9.31;3.51;;;;;;;22.88;59.23;100818.41;;;;-48
2019/06/25 13:45:54;;;;;;;13.60;3.35;;;;;;;22.89;59.29;100816.66;;;;-49
2019/06/25 13:48:54;;;;;;;5.17;3.25;;;;;;;22.90;59.40;100817.47;;;;-50
2019/06/25 13:51:54;;;;;;;7.69;3.31;;;;;;;22.91;59.41;100822.56;;;;-52
2019/06/25 13:54:55;;;;;;;7.40;3.01;;;;;;;22.91;59.46;100816.73;;;;-49
2019/06/25 13:57:55;;;;;;;6.25;3.01;;;;;;;22.91;59.55;100817.17;;;;-50
2019/06/25 14:00:54;;;;;;;7.65;3.40;;;;;;;22.92;59.49;100820.98;;;;-51
2019/06/25 14:03:54;;;;;;;6.68;3.45;;;;;;;22.94;59.52;100815.83;;;;-52
2019/06/25 14:06:54;;;;;;;7.16;3.29;;;;;;;22.94;59.56;100812.63;;;;-51
2019/06/25 14:09:54;;;;;;;5.15;2.99;;;;;;;22.95;59.59;100811.92;;;;-48
2019/06/25 14:12:56;;;;;;;10.17;3.38;;;;;;;22.97;59.49;100813.14;;;;-47
2019/06/25 14:15:54;;;;;;;6.57;3.24;;;;;;;22.99;59.53;100816.85;;;;-52
2019/06/25 14:18:54;;;;;;;9.24;3.23;;;;;;;23.00;59.60;100821.61;;;;-51
2019/06/25 14:21:54;;;;;;;5.80;3.29;;;;;;;22.99;59.53;100819.14;;;;-49
2019/06/25 14:24:54;;;;;;;6.55;3.27;;;;;;;23.00;59.51;100814.77;;;;-50
2019/06/25 14:27:54;;;;;;;4.55;2.91;;;;;;;23.00;59.52;100812.00;;;;-50
2019/06/25 14:30:54;;;;;;;6.35;3.06;;;;;;;23.01;59.58;100814.06;;;;-50
2019/06/25 14:33:54;;;;;;;6.61;3.36;;;;;;;23.01;59.48;100808.44;;;;-50
2019/06/25 14:36:54;;;;;;;4.69;3.15;;;;;;;23.02;59.62;100804.93;;;;-49
2019/06/25 14:39:54;;;;;;;6.04;3.05;;;;;;;23.01;59.33;100801.66;;;;-51
2019/06/25 14:42:54;;;;;;;8.32;3.33;;;;;;;23.00;59.39;100799.98;;;;-49
2019/06/25 14:45:54;;;;;;;4.59;3.07;;;;;;;23.00;59.34;100800.78;;;;-49
2019/06/25 14:48:54;;;;;;;6.97;3.08;;;;;;;22.98;59.28;100800.91;;;;-50
2019/06/25 14:51:54;;;;;;;4.19;3.35;;;;;;;22.97;59.24;100797.41;;;;-49
2019/06/25 14:54:54;;;;;;;4.28;3.09;;;;;;;22.97;59.14;100792.96;;;;-49
2019/06/25 14:57:54;;;;;;;4.42;2.97;;;;;;;22.96;59.15;100797.31;;;;-49
2019/06/25 15:00:54;;;;;;;5.65;3.07;;;;;;;22.95;59.12;100795.42;;;;-50
2019/06/25 15:03:54;;;;;;;7.97;3.30;;;;;;;22.97;59.34;100793.09;;;;-53
2019/06/25 15:06:54;;;;;;;5.13;2.99;;;;;;;22.97;59.36;100795.96;;;;-51
2019/06/25 15:09:54;;;;;;;5.82;3.08;;;;;;;22.98;59.39;100801.82;;;;-52
2019/06/25 15:12:54;;;;;;;10.49;3.42;;;;;;;22.98;59.43;100795.66;;;;-52
2019/06/25 15:15:54;;;;;;;4.19;3.10;;;;;;;22.98;59.44;100796.03;;;;-52
2019/06/25 15:18:54;;;;;;;5.62;3.19;;;;;;;22.99;59.46;100795.30;;;;-52
2019/06/25 15:21:54;;;;;;;7.05;3.26;;;;;;;23.00;59.48;100794.82;;;;-52
2019/06/25 15:24:54;;;;;;;5.07;3.31;;;;;;;23.00;59.46;100795.16;;;;-50
2019/06/25 15:27:54;;;;;;;4.45;3.17;;;;;;;23.01;59.53;100796.70;;;;-52
2019/06/25 15:30:55;;;;;;;5.50;3.07;;;;;;;23.01;59.49;100794.62;;;;-50
2019/06/25 15:33:54;;;;;;;5.30;3.19;;;;;;;23.02;59.49;100790.84;;;;-53
2019/06/25 15:36:55;;;;;;;5.03;3.27;;;;;;;23.02;59.54;100794.28;;;;-53
2019/06/25 15:39:54;;;;;;;4.71;3.31;;;;;;;23.03;59.44;100785.63;;;;-52
2019/06/25 15:42:54;;;;;;;6.57;3.14;;;;;;;23.03;59.59;100791.96;;;;-52
2019/06/25 15:45:54;;;;;;;10.47;3.54;;;;;;;23.04;59.55;100795.03;;;;-49
2019/06/25 15:48:54;;;;;;;7.37;3.43;;;;;;;23.03;59.36;100789.36;;;;-50
2019/06/25 15:51:54;;;;;;;4.13;3.19;;;;;;;23.03;59.21;100788.99;;;;-49
2019/06/25 15:54:54;;;;;;;4.79;3.57;;;;;;;23.02;59.11;100786.64;;;;-49
2019/06/25 15:57:54;;;;;;;5.77;3.31;;;;;;;23.01;59.10;100787.95;;;;-49
2019/06/25 16:00:54;;;;;;;5.47;3.14;;;;;;;23.00;59.07;100792.02;;;;-49
2019/06/25 16:03:54;;;;;;;5.73;3.17;;;;;;;23.00;59.02;100796.06;;;;-50
2019/06/25 16:06:54;;;;;;;4.25;3.20;;;;;;;22.98;59.02;100788.58;;;;-49
2019/06/25 16:09:54;;;;;;;4.01;3.04;;;;;;;22.97;59.00;100793.70;;;;-49
2019/06/25 16:12:54;;;;;;;5.45;3.11;;;;;;;22.95;58.99;100790.36;;;;-50
2019/06/25 16:15:54;;;;;;;4.18;3.11;;;;;;;22.95;59.00;100789.66;;;;-49
2019/06/25 16:18:54;;;;;;;4.98;3.19;;;;;;;22.94;58.95;100792.42;;;;-49
2019/06/25 16:21:54;;;;;;;4.90;3.17;;;;;;;22.94;58.97;100794.27;;;;-49
2019/06/25 16:24:55;;;;;;;5.31;3.07;;;;;;;22.93;58.96;100788.78;;;;-50
2019/06/25 16:27:54;;;;;;;6.14;3.33;;;;;;;22.91;58.95;100785.91;;;;-50
2019/06/25 16:30:54;;;;;;;3.50;3.20;;;;;;;22.90;58.97;100788.23;;;;-50
2019/06/25 16:33:54;;;;;;;5.55;3.00;;;;;;;22.90;58.97;100789.17;;;;-49
2019/06/25 16:36:54;;;;;;;4.63;2.95;;;;;;;22.90;58.97;100790.69;;;;-50
2019/06/25 16:39:54;;;;;;;4.49;3.19;;;;;;;22.89;58.94;100791.06;;;;-49